Terminal Aerodrome Forecast
Issued by NWS New Orleans/Baton Rouge, LA

Home | Current Version | Previous Version | Text Only | Print | Product List | Glossary On
Versions: 1 2 3 4 5 6 7 8 9 10 11 12 13 14 15 16 17
000
FTUS44 KLIX 240522
TAFNEW
TAF
KNEW 240522Z 2406/2506 18004KT P6SM SKC
     FM240800 VRB03KT P6SM SCT035 SCT070
     FM241000 VRB03KT P6SM FEW090 FEW250
     FM241500 29005KT P6SM VCSH SCT030 BKN090
      TEMPO 2418/2422 VRB15G25KT 2SM TSRA BKN030CB
     FM250100 VRB03KT P6SM SCT030 BKN070=

USA.gov is the U.S. government's official web portal to all federal, state and local government web resources and services.